createdAt,value
2022-09-18T00:01:54.641Z,1.23
2022-09-18T00:04:57.193Z,1.10
2022-09-18T00:07:59.717Z,1.02
2022-09-18T00:11:03.236Z,0.98
2022-09-18T00:14:05.828Z,1.10
2022-09-18T00:17:09.291Z,1.00
2022-09-18T00:20:12.239Z,0.90
2022-09-18T00:23:15.208Z,1.27
2022-09-18T00:26:18.492Z,1.10
2022-09-18T00:29:21.309Z,1.25
2022-09-18T00:32:24.059Z,1.33
2022-09-18T00:35:26.477Z,0.98
2022-09-18T00:38:28.709Z,1.25
2022-09-18T00:41:30.822Z,1.00
2022-09-18T00:44:32.991Z,1.30
2022-09-18T00:47:35.478Z,0.88
2022-09-18T00:50:39.103Z,0.90
2022-09-18T00:53:42.019Z,1.30
2022-09-18T00:56:44.902Z,1.00
2022-09-18T00:59:47.632Z,1.10
2022-09-18T01:02:50.342Z,1.00
2022-09-18T01:05:52.747Z,1.10
2022-09-18T01:08:54.853Z,0.90
2022-09-18T01:11:57.050Z,1.10
2022-09-18T01:14:59.701Z,1.00
2022-09-18T01:18:02.545Z,1.10
2022-09-18T01:21:04.754Z,0.93
2022-09-18T01:24:09.439Z,0.98
2022-09-18T01:27:12.224Z,1.10
2022-09-18T01:30:14.832Z,1.15
2022-09-18T01:33:17.359Z,1.00
2022-09-18T01:36:19.806Z,1.02
2022-09-18T01:39:22.262Z,0.93
2022-09-18T01:42:24.549Z,1.10
2022-09-18T01:45:27.882Z,0.90
2022-09-18T01:48:31.375Z,1.27
2022-09-18T01:51:35.298Z,0.93
2022-09-18T01:54:38.299Z,1.08
2022-09-18T01:57:40.727Z,1.05
2022-09-18T02:00:43.547Z,0.90
2022-09-18T02:03:45.998Z,0.85
2022-09-18T02:06:48.179Z,1.00
2022-09-18T02:09:50.437Z,1.02
2022-09-18T02:12:52.646Z,0.77
2022-09-18T02:15:55.183Z,1.00
2022-09-18T02:18:57.463Z,0.90
2022-09-18T02:21:59.789Z,1.08
2022-09-18T02:25:01.928Z,1.00
2022-09-18T02:28:04.049Z,1.38
2022-09-18T02:31:06.240Z,0.90
2022-09-18T02:34:08.700Z,0.77
2022-09-18T02:37:11.757Z,0.95
2022-09-18T02:40:14.521Z,1.00
2022-09-18T02:43:17.852Z,0.90
2022-09-18T02:46:20.539Z,1.10
2022-09-18T02:49:23.010Z,1.08
2022-09-18T02:52:25.310Z,0.80
2022-09-18T02:55:30.597Z,1.20
2022-09-18T02:58:35.833Z,1.00
2022-09-18T03:01:38.181Z,0.90
2022-09-18T03:04:41.365Z,0.90
2022-09-18T03:07:47.026Z,0.88
2022-09-18T03:10:49.289Z,0.82
2022-09-18T03:13:51.521Z,0.90
2022-09-18T03:16:54.010Z,0.90
2022-09-18T03:19:56.795Z,1.00
2022-09-18T03:22:59.483Z,1.05
2022-09-18T03:26:02.242Z,1.23
2022-09-18T03:29:05.253Z,0.90
2022-09-18T03:32:08.219Z,1.00
2022-09-18T03:35:19.863Z,0.90
2022-09-18T03:38:22.999Z,0.90
2022-09-18T03:41:25.868Z,0.95
2022-09-18T03:44:28.767Z,1.10
2022-09-18T03:47:36.442Z,0.93
2022-09-18T03:50:39.319Z,1.25
2022-09-18T03:53:42.875Z,0.80
2022-09-18T03:57:03.803Z,0.75
2022-09-18T04:00:24.463Z,0.80
2022-09-18T04:03:32.663Z,1.10
2022-09-18T04:06:58.356Z,0.80
2022-09-18T04:10:18.755Z,1.10
2022-09-18T04:13:21.279Z,0.90
2022-09-18T04:16:24.009Z,1.20
2022-09-18T04:19:27.492Z,0.73
2022-09-18T04:22:31.826Z,0.90
2022-09-18T04:25:34.014Z,0.90
2022-09-18T04:28:37.217Z,0.93
2022-09-18T04:31:41.590Z,0.80
2022-09-18T04:34:48.861Z,0.90
2022-09-18T04:37:51.478Z,0.80
2022-09-18T04:40:54.412Z,0.90
2022-09-18T04:43:56.997Z,1.15
2022-09-18T04:46:59.273Z,0.90
2022-09-18T04:50:01.971Z,1.05
2022-09-18T04:53:05.820Z,0.80
2022-09-18T04:56:09.345Z,0.68
2022-09-18T04:59:13.416Z,0.90
2022-09-18T05:02:20.336Z,0.70
2022-09-18T05:05:22.865Z,0.60
2022-09-18T05:08:25.951Z,0.70
2022-09-18T05:11:28.484Z,0.68
2022-09-18T05:14:30.957Z,0.70
2022-09-18T05:17:37.432Z,1.00
2022-09-18T05:20:40.089Z,0.88
2022-09-18T05:23:43.825Z,0.90
2022-09-18T05:26:46.010Z,0.63
2022-09-18T05:29:48.661Z,0.63
2022-09-18T05:32:58.956Z,0.70
2022-09-18T05:36:04.666Z,0.80
2022-09-18T05:39:07.969Z,0.90
2022-09-18T05:42:10.349Z,0.90
2022-09-18T05:45:12.541Z,0.85
2022-09-18T05:48:14.919Z,0.70
2022-09-18T05:51:17.557Z,0.80
2022-09-18T05:54:20.094Z,1.00
2022-09-18T05:57:24.406Z,0.90
2022-09-18T06:00:27.454Z,0.75
2022-09-18T06:03:37.149Z,0.70
2022-09-18T06:06:40.009Z,0.80
2022-09-18T06:09:44.552Z,0.55
2022-09-18T06:12:48.025Z,0.60
2022-09-18T06:15:50.592Z,0.90
2022-09-18T06:18:57.230Z,0.85
2022-09-18T06:22:00.679Z,0.60
2022-09-18T06:25:03.663Z,0.70
2022-09-18T06:28:09.141Z,0.63
2022-09-18T06:31:11.657Z,0.60
2022-09-18T06:34:38.529Z,0.90
2022-09-18T06:37:42.085Z,0.80
2022-09-18T06:40:52.853Z,0.73
2022-09-18T06:44:13.528Z,0.63
2022-09-18T06:47:21.294Z,0.60
2022-09-18T06:50:24.643Z,0.60
2022-09-18T06:53:27.444Z,0.90
2022-09-18T06:56:35.486Z,0.70
2022-09-18T06:59:39.009Z,1.05
2022-09-18T07:02:42.572Z,0.80
2022-09-18T07:06:03.836Z,0.95
2022-09-18T07:09:17.970Z,0.80
2022-09-18T07:12:29.160Z,0.73
2022-09-18T07:15:32.152Z,0.60
2022-09-18T07:18:34.849Z,0.70
2022-09-18T07:21:38.834Z,0.70
2022-09-18T07:24:41.398Z,0.82
2022-09-18T07:27:43.898Z,0.65
2022-09-18T07:30:47.731Z,0.75
2022-09-18T07:33:51.255Z,0.90
2022-09-18T07:36:55.867Z,0.80
2022-09-18T07:40:00.701Z,0.80
2022-09-18T07:43:21.543Z,0.80
2022-09-18T07:46:28.766Z,0.63
2022-09-18T07:49:36.029Z,1.00
2022-09-18T07:52:39.011Z,0.70
2022-09-18T07:55:44.622Z,0.70
2022-09-18T07:58:47.582Z,0.70
2022-09-18T08:01:53.327Z,1.25
2022-09-18T08:04:58.354Z,0.90
2022-09-18T08:08:23.153Z,0.75
2022-09-18T08:11:36.542Z,0.80
2022-09-18T08:14:50.015Z,0.70
2022-09-18T08:18:11.288Z,0.80
2022-09-18T08:21:33.942Z,0.85
2022-09-18T08:24:37.917Z,1.00
2022-09-18T08:27:40.438Z,0.80
2022-09-18T08:30:43.448Z,0.65
2022-09-18T08:33:47.782Z,0.77
2022-09-18T08:36:50.855Z,0.50
2022-09-18T08:40:00.008Z,0.77
2022-09-18T08:43:13.506Z,0.63
2022-09-18T08:46:19.649Z,0.60
2022-09-18T08:49:22.297Z,0.60
2022-09-18T08:52:27.004Z,0.80
2022-09-18T08:55:38.988Z,0.90
2022-09-18T08:58:46.999Z,0.68
2022-09-18T09:01:51.676Z,0.50
2022-09-18T09:05:00.225Z,0.43
2022-09-18T09:08:05.409Z,0.70
2022-09-18T09:11:08.381Z,0.70
2022-09-18T09:14:11.895Z,0.63
2022-09-18T09:17:14.822Z,0.60
2022-09-18T09:20:17.090Z,0.52
2022-09-18T09:23:19.304Z,0.52
2022-09-18T09:26:22.391Z,0.60
2022-09-18T09:29:47.530Z,0.60
2022-09-18T09:33:19.511Z,0.45
2022-09-18T09:36:38.193Z,0.70
2022-09-18T09:39:41.273Z,0.52
2022-09-18T09:42:43.521Z,0.85
2022-09-18T09:45:46.115Z,0.70
2022-09-18T09:48:48.593Z,0.57
2022-09-18T09:51:51.159Z,0.50
2022-09-18T09:54:53.936Z,0.60
2022-09-18T09:57:57.269Z,0.47
2022-09-18T10:00:59.846Z,0.60
2022-09-18T10:04:04.785Z,0.60
2022-09-18T10:07:10.613Z,0.60
2022-09-18T10:10:17.997Z,0.50
2022-09-18T10:13:20.360Z,0.70
2022-09-18T10:16:23.939Z,0.50
2022-09-18T10:19:28.471Z,0.80
2022-09-18T10:22:31.459Z,0.55
2022-09-18T10:25:34.402Z,0.50
2022-09-18T10:28:37.465Z,0.60
2022-09-18T10:31:40.420Z,0.50
2022-09-18T10:34:43.493Z,0.60
2022-09-18T10:37:46.833Z,0.40
2022-09-18T10:40:59.463Z,0.60
2022-09-18T10:44:01.758Z,1.15
2022-09-18T10:47:05.894Z,0.65
2022-09-18T10:50:09.248Z,0.50
2022-09-18T10:53:14.360Z,0.70
2022-09-18T10:56:18.660Z,0.50
2022-09-18T10:59:21.432Z,0.77
2022-09-18T11:02:24.313Z,0.55
2022-09-18T11:05:26.864Z,0.50
2022-09-18T11:08:29.478Z,0.70
2022-09-18T11:11:33.598Z,0.70
2022-09-18T11:14:44.045Z,0.50
2022-09-18T11:17:56.383Z,0.60
2022-09-18T11:20:59.472Z,0.60
2022-09-18T11:24:02.223Z,0.60
2022-09-18T11:27:05.174Z,0.52
2022-09-18T11:30:07.768Z,0.55
2022-09-18T11:33:10.117Z,0.90
2022-09-18T11:36:12.849Z,0.63
2022-09-18T11:39:16.044Z,0.60
2022-09-18T11:42:20.446Z,0.60
2022-09-18T11:45:25.398Z,0.60
2022-09-18T11:48:28.258Z,0.70
2022-09-18T11:51:32.202Z,0.60
2022-09-18T11:54:34.587Z,0.70
2022-09-18T11:57:37.254Z,0.70
2022-09-18T12:00:41.162Z,0.60
2022-09-18T12:03:44.296Z,0.65
2022-09-18T12:06:48.221Z,0.80
2022-09-18T12:09:49.253Z,0.70
2022-09-18T12:12:51.925Z,0.63
2022-09-18T12:15:54.940Z,0.70
2022-09-18T12:18:58.328Z,0.88
2022-09-18T12:22:01.271Z,0.80
2022-09-18T12:25:04.931Z,0.60
2022-09-18T12:28:36.241Z,0.82
2022-09-18T12:31:38.641Z,0.70
2022-09-18T12:34:44.927Z,0.70
2022-09-18T12:37:48.812Z,0.60
2022-09-18T12:40:52.516Z,0.60
2022-09-18T12:43:54.853Z,0.60
2022-09-18T12:47:00.435Z,0.90
2022-09-18T12:50:03.785Z,0.70
2022-09-18T12:53:09.859Z,0.80
2022-09-18T12:56:12.746Z,0.70
2022-09-18T12:59:15.637Z,0.82
2022-09-18T13:02:18.114Z,0.65
2022-09-18T13:05:20.728Z,0.60
2022-09-18T13:08:23.430Z,0.50
2022-09-18T13:11:26.037Z,0.60
2022-09-18T13:14:28.457Z,0.80
2022-09-18T13:17:32.651Z,0.90
2022-09-18T13:20:35.919Z,0.63
2022-09-18T13:23:39.293Z,0.70
2022-09-18T13:26:43.035Z,0.57
2022-09-18T13:29:45.843Z,0.60
2022-09-18T13:32:49.116Z,0.68
2022-09-18T13:35:52.247Z,0.50
2022-09-18T13:38:55.148Z,0.70
2022-09-18T13:41:58.118Z,0.70
2022-09-18T13:45:01.007Z,0.88
2022-09-18T13:48:03.650Z,0.70
2022-09-18T13:51:06.215Z,0.70
2022-09-18T13:54:08.832Z,0.73
2022-09-18T13:57:11.385Z,0.70
2022-09-18T14:00:14.287Z,0.63
2022-09-18T14:03:17.636Z,0.60
2022-09-18T14:06:20.882Z,0.60
2022-09-18T14:09:24.101Z,0.60
2022-09-18T14:12:26.968Z,0.60
2022-09-18T14:15:29.872Z,0.70
2022-09-18T14:18:32.560Z,0.47
2022-09-18T14:21:35.329Z,0.50
2022-09-18T14:24:37.515Z,0.50
2022-09-18T14:27:40.636Z,0.60
2022-09-18T14:30:44.098Z,0.60
2022-09-18T14:33:47.514Z,0.63
2022-09-18T14:36:50.565Z,0.50
2022-09-18T14:39:53.409Z,0.68
2022-09-18T14:42:56.197Z,0.90
2022-09-18T14:45:58.429Z,0.70
2022-09-18T14:49:01.305Z,0.57
2022-09-18T14:52:04.915Z,0.60
2022-09-18T14:55:08.369Z,0.82
2022-09-18T14:58:11.574Z,0.88
2022-09-18T15:01:14.587Z,0.70
2022-09-18T15:04:17.131Z,0.60
2022-09-18T15:07:19.990Z,0.70
2022-09-18T15:10:23.447Z,0.70
2022-09-18T15:13:26.647Z,0.47
2022-09-18T15:16:29.814Z,0.70
2022-09-18T15:19:32.485Z,0.70
2022-09-18T15:22:35.376Z,0.70
2022-09-18T15:25:38.456Z,0.65
2022-09-18T15:28:41.239Z,0.80
2022-09-18T15:31:44.053Z,0.60
2022-09-18T15:34:47.605Z,0.63
2022-09-18T15:37:50.523Z,0.60
2022-09-18T15:40:53.426Z,0.70
2022-09-18T15:43:56.528Z,0.50
2022-09-18T15:46:58.760Z,0.57
2022-09-18T15:50:01.151Z,0.50
2022-09-18T15:53:03.387Z,0.60
2022-09-18T15:56:06.428Z,0.68
2022-09-18T15:59:10.141Z,0.57
2022-09-18T16:02:12.962Z,0.70
2022-09-18T16:05:15.715Z,2.75
2022-09-18T16:08:18.049Z,9.00
2022-09-18T16:11:20.917Z,11.07
2022-09-18T16:14:23.368Z,9.43
2022-09-18T16:17:26.279Z,8.60
2022-09-18T16:20:29.191Z,8.27
2022-09-18T16:23:32.346Z,7.95
2022-09-18T16:26:35.112Z,7.43
2022-09-18T16:29:38.263Z,7.18
2022-09-18T16:32:41.329Z,6.90
2022-09-18T16:35:44.673Z,5.97
2022-09-18T16:38:47.071Z,6.32
2022-09-18T16:41:49.613Z,6.30
2022-09-18T16:44:52.493Z,5.55
2022-09-18T16:47:59.854Z,6.05
2022-09-18T16:51:03.351Z,4.78
2022-09-18T16:54:05.318Z,4.65
2022-09-18T16:57:07.504Z,4.38
2022-09-18T17:00:10.086Z,4.38
2022-09-18T17:03:12.745Z,3.95
2022-09-18T17:06:18.775Z,3.72
2022-09-18T17:09:21.689Z,3.78
2022-09-18T17:12:25.048Z,3.53
2022-09-18T17:15:27.834Z,3.20
2022-09-18T17:18:31.081Z,3.20
2022-09-18T17:21:34.184Z,3.05
2022-09-18T17:24:37.310Z,2.92
2022-09-18T17:27:43.546Z,2.97
2022-09-18T17:30:46.282Z,2.78
2022-09-18T17:33:49.221Z,2.25
2022-09-18T17:36:52.059Z,2.75
2022-09-18T17:39:54.809Z,2.20
2022-09-18T17:42:57.447Z,2.30
2022-09-18T17:46:01.027Z,2.17
2022-09-18T17:49:04.118Z,1.85
2022-09-18T17:52:06.953Z,2.00
2022-09-18T17:55:09.573Z,2.20
2022-09-18T17:58:13.183Z,1.90
2022-09-18T18:01:15.901Z,1.90
2022-09-18T18:04:18.951Z,1.80
2022-09-18T18:07:21.501Z,2.00
2022-09-18T18:10:23.954Z,1.80
2022-09-18T18:13:27.589Z,1.58
2022-09-18T18:16:30.673Z,1.50
2022-09-18T18:19:33.788Z,1.48
2022-09-18T18:22:36.976Z,1.85
2022-09-18T18:25:39.331Z,1.45
2022-09-18T18:28:42.738Z,1.30
2022-09-18T18:31:45.772Z,1.38
2022-09-18T18:34:47.689Z,1.30
2022-09-18T18:37:50.692Z,1.33
2022-09-18T18:40:53.620Z,1.40
2022-09-18T18:43:57.054Z,1.30
2022-09-18T18:47:00.437Z,1.00
2022-09-18T18:50:02.988Z,1.40
2022-09-18T18:53:05.620Z,1.50
2022-09-18T18:56:08.193Z,1.25
2022-09-18T18:59:11.353Z,1.20
2022-09-18T19:02:14.219Z,0.93
2022-09-18T19:05:16.720Z,1.10
2022-09-18T19:08:20.164Z,1.30
2022-09-18T19:11:22.548Z,1.00
2022-09-18T19:14:25.988Z,1.00
2022-09-18T19:17:29.535Z,1.17
2022-09-18T19:20:32.763Z,1.20
2022-09-18T19:23:36.530Z,1.10
2022-09-18T19:26:40.483Z,1.10
2022-09-18T19:29:44.542Z,1.05
2022-09-18T19:32:47.514Z,1.17
2022-09-18T19:35:50.390Z,1.25
2022-09-18T19:38:53.406Z,1.13
2022-09-18T19:41:56.567Z,1.13
2022-09-18T19:44:58.923Z,1.00
2022-09-18T19:48:01.849Z,0.80
2022-09-18T19:51:04.706Z,1.05
2022-09-18T19:54:08.136Z,1.10
2022-09-18T19:57:10.749Z,1.00
2022-09-18T20:00:13.225Z,0.90
2022-09-18T20:03:17.125Z,0.90
2022-09-18T20:06:19.255Z,0.98
2022-09-18T20:09:21.818Z,1.00
2022-09-18T20:12:24.378Z,0.82
2022-09-18T20:15:26.999Z,0.85
2022-09-18T20:18:29.702Z,0.98
2022-09-18T20:21:31.831Z,1.17
2022-09-18T20:24:34.431Z,1.00
2022-09-18T20:27:37.501Z,0.90
2022-09-18T20:30:40.305Z,1.02
2022-09-18T20:33:42.409Z,1.05
2022-09-18T20:36:44.689Z,1.00
2022-09-18T20:39:48.147Z,1.08
2022-09-18T20:42:50.825Z,1.20
2022-09-18T20:45:53.266Z,1.15
2022-09-18T20:48:56.448Z,1.15
2022-09-18T20:51:59.196Z,1.00
2022-09-18T20:55:01.996Z,0.90
2022-09-18T20:58:04.588Z,1.10
2022-09-18T21:01:06.796Z,0.90
2022-09-18T21:04:09.434Z,1.00
2022-09-18T21:07:11.974Z,0.95
2022-09-18T21:10:14.490Z,1.00
2022-09-18T21:13:17.462Z,1.05
2022-09-18T21:16:20.140Z,0.85
2022-09-18T21:19:22.653Z,1.30
2022-09-18T21:22:25.584Z,0.80
2022-09-18T21:25:27.987Z,1.30
2022-09-18T21:28:30.449Z,0.98
2022-09-18T21:31:33.318Z,1.00
2022-09-18T21:34:35.805Z,1.05
2022-09-18T21:37:38.189Z,0.95
2022-09-18T21:40:40.762Z,1.05
2022-09-18T21:43:43.300Z,1.00
2022-09-18T21:46:45.658Z,1.13
2022-09-18T21:49:48.687Z,1.00
2022-09-18T21:52:51.602Z,1.02
2022-09-18T21:55:54.070Z,1.02
2022-09-18T21:58:56.778Z,1.10
2022-09-18T22:01:59.550Z,1.02
2022-09-18T22:05:01.996Z,1.15
2022-09-18T22:08:04.903Z,1.17
2022-09-18T22:11:07.802Z,1.15
2022-09-18T22:14:10.131Z,1.10
2022-09-18T22:17:12.259Z,1.30
2022-09-18T22:20:15.221Z,1.00
2022-09-18T22:23:18.049Z,1.17
2022-09-18T22:26:20.209Z,1.00
2022-09-18T22:29:22.768Z,1.02
2022-09-18T22:32:25.267Z,1.00
2022-09-18T22:35:27.789Z,1.10
2022-09-18T22:38:29.964Z,1.30
2022-09-18T22:41:32.782Z,1.30
2022-09-18T22:44:35.216Z,1.00
2022-09-18T22:47:37.631Z,1.00
2022-09-18T22:50:40.505Z,1.00
2022-09-18T22:53:45.925Z,1.00
2022-09-18T22:56:48.449Z,1.25
2022-09-18T22:59:50.983Z,1.35
2022-09-18T23:02:53.692Z,1.23
2022-09-18T23:05:56.051Z,1.20
2022-09-18T23:08:58.849Z,1.17
2022-09-18T23:12:01.712Z,1.23
2022-09-18T23:15:04.247Z,1.25
2022-09-18T23:18:06.773Z,1.00
2022-09-18T23:21:09.157Z,1.08
2022-09-18T23:24:11.403Z,1.13
2022-09-18T23:27:13.969Z,1.10
2022-09-18T23:30:16.863Z,1.20
2022-09-18T23:33:19.348Z,1.13
2022-09-18T23:36:21.493Z,1.33
2022-09-18T23:39:24.100Z,1.05
2022-09-18T23:42:26.769Z,1.27
2022-09-18T23:45:29.696Z,1.15
2022-09-18T23:48:32.487Z,1.20
2022-09-18T23:51:35.356Z,1.00
2022-09-18T23:54:38.190Z,1.00
2022-09-18T23:57:40.347Z,1.00
